テルアビブ / ベン・グリオン の空港の天気 - METARとTAF

ベン・グリオン国際空港(テルアビブ) ( LLBG / TLV ) - イスラエル ロード / テルアビブ
飛行場実況気象(Metar)
観測時間10/16 10:50 IDT (10/16 07:50 UTC)
風向・風速不定 1m/s
視程10km以上
天気現象
全天の4割程度の雲 雲底高度 670m
全天の4割程度の雲 雲底高度 910m
気温29℃
湿度70%
気圧1014hPa
METARLLBG 160750Z VRB02KT 9999 SCT022 SCT030 29/23 Q1014 NOSIG
過去の天気等 Google飛行場航空写真 Wunderground天気予報

過去48時間のMETAR

飛行場予報(TAF)
発表時間: 10/16 08:54 IDT (10/16 05:54 UTC)
予報対象時間: 16日9時 IDT ~ 17日9時 IDT
風向・風速南東 3m/s
視程8000m
全天の4割程度の雲 雲底高度 460m
16日9時 IDT ~ 16日11時 IDT に一時的に
全天の8割程度の雲 雲底高度 370m
16日11時 IDT から
風向・風速西 6m/s
視程10km以上
少しの雲 雲底高度 760m
16日12時 IDT から 確率 30% で
視程8000m
天気現象
全天の4割程度の雲 雲底高度 760m
少しの塔状積雲 雲底高度 1830m
16日19時 IDT ~ 16日21時 IDT に徐々に
風向・風速不定 2m/s
全天の4割程度の雲 雲底高度 760m
17日3時 IDT ~ 17日9時 IDT に一時的に
視程8000m
全天の8割程度の雲 雲底高度 610m
TAF AMD LLBG 160554Z 1606/1706 14006KT 8000 SCT015
TEMPO 1606/1608 BKN012
FM160800 28012KT 9999 FEW025
PROB30 1609/1615 8000 RA SCT025 FEW060TCU
BECMG 1616/1618 VRB04KT SCT025
TEMPO 1700/1706 8000 BKN020 TX31/1611Z TN24/1704Z